createdAt,value
2023-02-24T00:01:16.984Z,10.60
2023-02-24T00:03:48.567Z,10.85
2023-02-24T00:06:20.279Z,12.45
2023-02-24T00:08:52.351Z,10.85
2023-02-24T00:11:23.901Z,10.32
2023-02-24T00:13:55.442Z,7.10
2023-02-24T00:16:27.185Z,10.40
2023-02-24T00:18:58.873Z,12.68
2023-02-24T00:21:30.602Z,13.18
2023-02-24T00:24:02.241Z,11.80
2023-02-24T00:26:33.819Z,13.07
2023-02-24T00:29:08.315Z,10.10
2023-02-24T00:31:40.234Z,10.63
2023-02-24T00:34:11.829Z,9.27
2023-02-24T00:36:43.342Z,8.98
2023-02-24T00:39:15.088Z,9.70
2023-02-24T00:41:46.644Z,8.27
2023-02-24T00:44:18.226Z,12.45
2023-02-24T00:46:49.947Z,11.90
2023-02-24T00:49:21.478Z,11.13
2023-02-24T00:51:53.036Z,9.77
2023-02-24T00:54:25.205Z,7.70
2023-02-24T00:56:56.769Z,9.20
2023-02-24T00:59:28.685Z,8.95
2023-02-24T01:02:00.432Z,12.15
2023-02-24T01:04:31.932Z,7.32
2023-02-24T01:07:03.353Z,5.63
2023-02-24T01:09:34.766Z,7.30
2023-02-24T01:12:09.304Z,8.85
2023-02-24T01:14:40.737Z,6.10
2023-02-24T01:17:12.195Z,10.35
2023-02-24T01:19:44.590Z,7.00
2023-02-24T01:22:17.872Z,8.13
2023-02-24T01:24:49.456Z,7.55
2023-02-24T01:27:20.949Z,7.50
2023-02-24T01:29:52.402Z,4.82
2023-02-24T01:32:24.019Z,6.88
2023-02-24T01:34:55.600Z,10.53
2023-02-24T01:37:28.617Z,7.65
2023-02-24T01:40:00.051Z,8.23
2023-02-24T01:42:31.505Z,7.03
2023-02-24T01:45:07.399Z,7.78
2023-02-24T01:47:39.456Z,8.63
2023-02-24T01:50:11.359Z,8.40
2023-02-24T01:52:46.229Z,7.88
2023-02-24T01:55:24.449Z,8.48
2023-02-24T01:57:57.567Z,8.73
2023-02-24T02:00:29.273Z,6.57
2023-02-24T02:03:05.696Z,8.97
2023-02-24T02:05:39.547Z,10.15
2023-02-24T02:08:11.292Z,8.45
2023-02-24T02:10:42.860Z,7.43
2023-02-24T02:13:16.790Z,6.43
2023-02-24T02:16:08.400Z,8.53
2023-02-24T02:18:48.204Z,7.22
2023-02-24T02:21:22.905Z,9.18
2023-02-24T02:24:04.089Z,8.98
2023-02-24T02:27:01.240Z,9.63
2023-02-24T02:29:49.943Z,7.60
2023-02-24T02:32:41.883Z,8.05
2023-02-24T02:35:22.229Z,6.23
2023-02-24T02:38:02.780Z,7.35
2023-02-24T02:40:39.141Z,8.03
2023-02-24T02:43:28.668Z,7.45
2023-02-24T02:46:09.682Z,6.77
2023-02-24T02:48:54.853Z,6.97
2023-02-24T02:51:35.427Z,6.93
2023-02-24T02:54:22.244Z,6.07
2023-02-24T02:57:17.057Z,8.13
2023-02-24T02:59:58.359Z,6.45
2023-02-24T03:02:33.305Z,6.88
2023-02-24T03:05:07.221Z,5.35
2023-02-24T03:07:44.196Z,6.05
2023-02-24T03:10:20.970Z,5.32
2023-02-24T03:12:55.637Z,5.80
2023-02-24T03:15:30.466Z,7.38
2023-02-24T03:18:09.402Z,4.13
2023-02-24T03:20:54.688Z,8.38
2023-02-24T03:23:28.867Z,6.78
2023-02-24T03:26:20.903Z,5.72
2023-02-24T03:29:29.332Z,6.05
2023-02-24T03:32:04.924Z,6.37
2023-02-24T03:34:44.028Z,7.57
2023-02-24T03:37:15.591Z,8.18
2023-02-24T03:39:47.096Z,6.28
2023-02-24T03:42:20.198Z,6.87
2023-02-24T03:44:51.859Z,5.47
2023-02-24T03:47:23.315Z,4.85
2023-02-24T03:49:54.726Z,7.85
2023-02-24T03:52:40.611Z,6.03
2023-02-24T03:55:34.150Z,5.07
2023-02-24T03:58:33.577Z,5.22
2023-02-24T04:01:09.588Z,6.17
2023-02-24T04:04:10.015Z,5.93
2023-02-24T04:07:04.163Z,5.32
2023-02-24T04:10:05.375Z,7.70
2023-02-24T04:12:43.634Z,6.10
2023-02-24T04:15:23.741Z,5.85
2023-02-24T04:17:59.682Z,9.38
2023-02-24T04:20:34.116Z,6.22
2023-02-24T04:23:11.584Z,9.33
2023-02-24T04:25:47.179Z,7.38
2023-02-24T04:28:21.403Z,8.90
2023-02-24T04:30:59.204Z,7.40
2023-02-24T04:33:30.721Z,8.45
2023-02-24T04:36:02.614Z,8.73
2023-02-24T04:38:34.108Z,12.80
2023-02-24T04:41:05.572Z,9.82
2023-02-24T04:43:36.995Z,8.23
2023-02-24T04:46:08.438Z,14.02
2023-02-24T04:48:39.944Z,11.63
2023-02-24T04:51:12.406Z,9.75
2023-02-24T04:53:43.847Z,13.17
2023-02-24T04:56:15.285Z,10.05
2023-02-24T04:58:46.675Z,12.50
2023-02-24T05:01:18.363Z,12.40
2023-02-24T05:03:49.961Z,10.13
2023-02-24T05:06:21.462Z,10.00
2023-02-24T05:08:52.922Z,8.38
2023-02-24T05:11:24.445Z,10.07
2023-02-24T05:13:55.941Z,8.00
2023-02-24T05:16:27.470Z,11.43
2023-02-24T05:18:59.014Z,10.73
2023-02-24T05:21:30.432Z,12.57
2023-02-24T05:24:02.297Z,14.55
2023-02-24T05:26:36.264Z,12.98
2023-02-24T05:29:08.275Z,11.98
2023-02-24T05:31:39.762Z,10.63
2023-02-24T05:34:12.104Z,9.75
2023-02-24T05:36:43.532Z,9.48
2023-02-24T05:39:14.976Z,8.98
2023-02-24T05:41:49.483Z,12.27
2023-02-24T05:44:22.434Z,14.75
2023-02-24T05:46:56.620Z,10.57
2023-02-24T05:49:30.655Z,10.85
2023-02-24T05:52:08.110Z,14.07
2023-02-24T05:54:44.040Z,11.35
2023-02-24T05:57:18.476Z,10.43
2023-02-24T05:59:50.901Z,11.90
2023-02-24T06:02:22.406Z,12.35
2023-02-24T06:04:54.361Z,10.88
2023-02-24T06:07:28.636Z,9.00
2023-02-24T06:10:01.760Z,11.75
2023-02-24T06:12:34.882Z,13.57
2023-02-24T06:15:06.701Z,14.35
2023-02-24T06:17:38.156Z,12.15
2023-02-24T06:20:10.265Z,15.67
2023-02-24T06:22:41.890Z,11.70
2023-02-24T06:25:13.342Z,12.40
2023-02-24T06:27:44.851Z,10.65
2023-02-24T06:30:16.466Z,13.15
2023-02-24T06:32:48.988Z,12.70
2023-02-24T06:35:20.812Z,15.07
2023-02-24T06:37:52.281Z,13.90
2023-02-24T06:40:23.777Z,14.45
2023-02-24T06:42:55.268Z,12.63
2023-02-24T06:45:26.752Z,17.52
2023-02-24T06:47:58.198Z,12.40
2023-02-24T06:50:29.620Z,10.95
2023-02-24T06:53:01.176Z,14.20
2023-02-24T06:55:32.655Z,16.90
2023-02-24T06:58:04.083Z,13.15
2023-02-24T07:00:35.486Z,17.73
2023-02-24T07:03:10.352Z,11.98
2023-02-24T07:05:50.170Z,15.20
2023-02-24T07:08:24.030Z,15.05
2023-02-24T07:10:57.537Z,15.60
2023-02-24T07:13:29.010Z,15.35
2023-02-24T07:16:01.460Z,16.05
2023-02-24T07:18:37.235Z,14.35
2023-02-24T07:21:11.292Z,15.20
2023-02-24T07:23:45.423Z,10.82
2023-02-24T07:26:19.335Z,13.90
2023-02-24T07:28:52.306Z,14.63
2023-02-24T07:31:25.158Z,17.33
2023-02-24T07:33:57.367Z,14.68
2023-02-24T07:36:29.721Z,14.98
2023-02-24T07:39:01.185Z,18.37
2023-02-24T07:41:32.588Z,14.15
2023-02-24T07:44:04.162Z,14.63
2023-02-24T07:46:35.680Z,13.75
2023-02-24T07:49:07.219Z,13.02
2023-02-24T07:51:38.658Z,15.77
2023-02-24T07:54:11.045Z,17.58
2023-02-24T07:56:42.506Z,17.35
2023-02-24T07:59:14.463Z,13.13
2023-02-24T08:01:45.918Z,14.48
2023-02-24T08:04:20.849Z,13.20
2023-02-24T08:06:52.752Z,14.25
2023-02-24T08:09:29.944Z,15.23
2023-02-24T08:12:01.359Z,15.73
2023-02-24T08:14:32.898Z,15.57
2023-02-24T08:17:04.334Z,17.57
2023-02-24T08:19:35.774Z,18.20
2023-02-24T08:22:09.962Z,17.63
2023-02-24T08:24:41.431Z,12.85
2023-02-24T08:27:13.138Z,16.27
2023-02-24T08:29:48.432Z,17.75
2023-02-24T08:32:20.938Z,19.48
2023-02-24T08:34:52.945Z,20.60
2023-02-24T08:37:25.190Z,17.35
2023-02-24T08:39:56.836Z,18.35
2023-02-24T08:42:28.285Z,20.60
2023-02-24T08:44:59.788Z,18.17
2023-02-24T08:47:31.226Z,18.15
2023-02-24T08:50:02.829Z,15.33
2023-02-24T08:52:34.409Z,20.50
2023-02-24T08:55:06.379Z,23.73
2023-02-24T08:57:37.844Z,16.45
2023-02-24T09:00:10.087Z,20.38
2023-02-24T09:02:41.545Z,19.57
2023-02-24T09:05:14.631Z,18.23
2023-02-24T09:07:46.206Z,19.17
2023-02-24T09:10:19.054Z,18.60
2023-02-24T09:12:50.506Z,17.95
2023-02-24T09:15:21.989Z,18.35
2023-02-24T09:17:53.502Z,17.58
2023-02-24T09:20:25.003Z,23.45
2023-02-24T09:22:58.623Z,19.80
2023-02-24T09:25:32.098Z,19.27
2023-02-24T09:28:09.718Z,22.02
2023-02-24T09:30:43.522Z,20.65
2023-02-24T09:33:18.922Z,18.97
2023-02-24T09:36:02.010Z,23.75
2023-02-24T09:38:33.464Z,21.63
2023-02-24T09:41:21.551Z,21.63
2023-02-24T09:43:52.966Z,26.50
2023-02-24T09:46:24.729Z,20.67
2023-02-24T09:49:11.859Z,23.10
2023-02-24T09:51:44.520Z,22.60
2023-02-24T09:54:19.912Z,19.00
2023-02-24T09:56:58.638Z,21.80
2023-02-24T09:59:39.419Z,18.95
2023-02-24T10:02:33.810Z,22.77
2023-02-24T10:05:20.528Z,22.80
2023-02-24T10:07:52.167Z,21.42
2023-02-24T10:10:28.777Z,20.83
2023-02-24T10:13:12.364Z,19.13
2023-02-24T10:15:46.720Z,30.20
2023-02-24T10:18:29.250Z,22.40
2023-02-24T10:21:21.272Z,20.80
2023-02-24T10:24:15.589Z,18.55
2023-02-24T10:27:17.648Z,18.67
2023-02-24T10:29:52.429Z,18.35
2023-02-24T10:32:35.203Z,24.40
2023-02-24T10:35:14.099Z,19.02
2023-02-24T10:37:45.865Z,19.00
2023-02-24T10:40:17.681Z,16.13
2023-02-24T10:42:49.123Z,17.17
2023-02-24T10:45:26.350Z,13.32
2023-02-24T10:47:59.871Z,19.00
2023-02-24T10:50:54.901Z,17.92
2023-02-24T10:53:28.267Z,14.93
2023-02-24T10:56:03.370Z,18.60
2023-02-24T10:58:35.942Z,15.75
2023-02-24T11:01:20.038Z,18.33
2023-02-24T11:03:54.465Z,14.82
2023-02-24T11:06:26.767Z,13.45
2023-02-24T11:08:58.637Z,19.38
2023-02-24T11:11:35.002Z,16.60
2023-02-24T11:14:17.043Z,14.67
2023-02-24T11:16:55.413Z,10.50
2023-02-24T11:19:32.829Z,14.55
2023-02-24T11:22:04.518Z,20.05
2023-02-24T11:24:37.636Z,20.77
2023-02-24T11:27:10.788Z,24.15
2023-02-24T11:30:14.287Z,23.08
2023-02-24T11:33:03.778Z,22.48
2023-02-24T11:35:58.697Z,27.43
2023-02-24T11:38:50.345Z,23.08
2023-02-24T11:41:28.630Z,27.42
2023-02-24T11:44:27.139Z,29.50
2023-02-24T11:47:13.220Z,28.00
2023-02-24T11:49:51.428Z,28.25
2023-02-24T11:52:29.956Z,29.92
2023-02-24T11:55:05.014Z,30.05
2023-02-24T11:57:43.459Z,31.65
2023-02-24T12:00:19.574Z,30.52
2023-02-24T12:03:29.730Z,25.27
2023-02-24T12:06:14.151Z,29.63
2023-02-24T12:08:51.628Z,27.23
2023-02-24T12:11:33.331Z,25.42
2023-02-24T12:14:21.542Z,26.50
2023-02-24T12:17:19.120Z,29.77
2023-02-24T12:20:18.279Z,32.65
2023-02-24T12:23:00.995Z,31.48
2023-02-24T12:25:46.063Z,30.83
2023-02-24T12:28:40.583Z,31.02
2023-02-24T12:31:42.320Z,28.58
2023-02-24T12:34:32.378Z,32.92
2023-02-24T12:37:13.792Z,26.50
2023-02-24T12:39:59.410Z,28.10
2023-02-24T12:42:46.710Z,26.92
2023-02-24T12:45:26.418Z,33.47
2023-02-24T12:48:17.422Z,36.10
2023-02-24T12:51:00.507Z,31.23
2023-02-24T12:53:46.563Z,36.58
2023-02-24T12:56:20.806Z,34.28
2023-02-24T12:58:57.941Z,36.33
2023-02-24T13:01:39.386Z,34.75
2023-02-24T13:04:33.852Z,32.28
2023-02-24T13:07:21.603Z,35.70
2023-02-24T13:10:08.348Z,34.22
2023-02-24T13:12:48.788Z,40.65
2023-02-24T13:15:25.799Z,38.22
2023-02-24T13:17:58.432Z,35.58
2023-02-24T13:20:35.370Z,37.80
2023-02-24T13:23:21.381Z,36.00
2023-02-24T13:25:55.438Z,34.95
2023-02-24T13:28:32.740Z,30.92
2023-02-24T13:31:07.397Z,35.38
2023-02-24T13:33:44.118Z,32.47
2023-02-24T13:36:21.977Z,32.00
2023-02-24T13:39:21.814Z,29.73
2023-02-24T13:42:06.114Z,28.00
2023-02-24T13:44:49.695Z,27.27
2023-02-24T13:47:49.569Z,28.15
2023-02-24T13:50:24.848Z,18.98
2023-02-24T13:53:08.400Z,17.13
2023-02-24T13:56:01.936Z,20.50
2023-02-24T13:58:52.000Z,17.05
2023-02-24T14:01:27.965Z,18.45
2023-02-24T14:04:16.626Z,21.17
2023-02-24T14:06:58.419Z,20.98
2023-02-24T14:09:35.118Z,18.58
2023-02-24T14:12:14.570Z,23.63
2023-02-24T14:14:47.565Z,24.23
2023-02-24T14:17:37.766Z,21.67
2023-02-24T14:20:15.033Z,21.27
2023-02-24T14:22:52.815Z,23.48
2023-02-24T14:25:30.379Z,20.60
2023-02-24T14:28:01.967Z,21.17
2023-02-24T14:30:37.058Z,18.25
2023-02-24T14:33:24.300Z,19.57
2023-02-24T14:35:56.081Z,17.80
2023-02-24T14:38:34.874Z,16.27
2023-02-24T14:41:17.071Z,14.30
2023-02-24T14:43:49.317Z,19.20
2023-02-24T14:46:21.592Z,17.05
2023-02-24T14:48:55.522Z,17.08
2023-02-24T14:51:32.905Z,19.23
2023-02-24T14:54:11.773Z,20.55
2023-02-24T14:56:43.287Z,23.55
2023-02-24T14:59:29.557Z,24.47
2023-02-24T15:02:04.372Z,20.75
2023-02-24T15:04:38.248Z,18.88
2023-02-24T15:07:36.212Z,14.52
2023-02-24T15:10:21.429Z,15.27
2023-02-24T15:13:12.972Z,16.10
2023-02-24T15:15:44.593Z,14.25
2023-02-24T15:18:27.508Z,10.15
2023-02-24T15:21:04.701Z,12.18
2023-02-24T15:23:37.815Z,9.23
2023-02-24T15:26:25.587Z,9.70
2023-02-24T15:28:58.933Z,11.48
2023-02-24T15:31:30.679Z,11.65
2023-02-24T15:34:02.525Z,13.50
2023-02-24T15:36:36.042Z,12.85
2023-02-24T15:39:09.267Z,16.50
2023-02-24T15:41:43.294Z,12.63
2023-02-24T15:44:26.243Z,13.13
2023-02-24T15:46:59.213Z,13.73
2023-02-24T15:49:30.666Z,12.07
2023-02-24T15:52:02.105Z,8.27
2023-02-24T15:54:39.222Z,13.57
2023-02-24T15:57:14.984Z,10.90
2023-02-24T15:59:46.893Z,14.55
2023-02-24T16:02:20.847Z,14.63
2023-02-24T16:04:52.776Z,13.77
2023-02-24T16:07:33.808Z,14.82
2023-02-24T16:10:06.321Z,15.05
2023-02-24T16:12:48.890Z,14.27
2023-02-24T16:15:25.604Z,13.52
2023-02-24T16:17:57.571Z,20.42
2023-02-24T16:20:30.862Z,18.63
2023-02-24T16:23:05.280Z,17.27
2023-02-24T16:25:44.226Z,16.40
2023-02-24T16:28:17.460Z,19.48
2023-02-24T16:30:50.462Z,17.05
2023-02-24T16:33:22.245Z,21.15
2023-02-24T16:35:53.883Z,21.33
2023-02-24T16:38:25.373Z,16.25
2023-02-24T16:40:56.871Z,12.40
2023-02-24T16:43:28.291Z,18.52
2023-02-24T16:46:04.286Z,15.52
2023-02-24T16:48:39.035Z,18.88
2023-02-24T16:51:10.966Z,14.73
2023-02-24T16:53:43.035Z,18.00
2023-02-24T16:56:14.577Z,16.42
2023-02-24T16:58:45.991Z,19.98
2023-02-24T17:01:21.522Z,19.63
2023-02-24T17:03:53.751Z,15.27
2023-02-24T17:06:25.569Z,17.27
2023-02-24T17:08:57.320Z,19.52
2023-02-24T17:11:28.977Z,19.13
2023-02-24T17:14:00.445Z,21.63
2023-02-24T17:16:31.997Z,23.60
2023-02-24T17:19:03.452Z,21.45
2023-02-24T17:21:35.434Z,21.20
2023-02-24T17:24:15.888Z,20.73
2023-02-24T17:26:47.523Z,19.58
2023-02-24T17:29:18.986Z,22.88
2023-02-24T17:31:50.800Z,22.88
2023-02-24T17:34:22.461Z,14.63
2023-02-24T17:36:53.901Z,9.70
2023-02-24T17:39:25.532Z,10.88
2023-02-24T17:41:56.931Z,9.70
2023-02-24T17:44:28.647Z,13.10
2023-02-24T17:47:00.060Z,13.35
2023-02-24T17:49:32.507Z,11.15
2023-02-24T17:52:06.184Z,17.77
2023-02-24T17:54:37.741Z,15.73
2023-02-24T17:57:09.208Z,15.98
2023-02-24T17:59:43.019Z,14.85
2023-02-24T18:02:17.083Z,15.00
2023-02-24T18:04:51.635Z,18.23
2023-02-24T18:07:23.110Z,18.90
2023-02-24T18:09:54.582Z,16.45
2023-02-24T18:12:26.906Z,17.17
2023-02-24T18:15:07.888Z,16.92
2023-02-24T18:17:42.597Z,14.80
2023-02-24T18:20:14.078Z,15.40
2023-02-24T18:22:45.555Z,18.98
2023-02-24T18:25:16.981Z,14.67
2023-02-24T18:27:48.411Z,18.92
2023-02-24T18:30:19.894Z,20.23
2023-02-24T18:32:51.521Z,20.17
2023-02-24T18:35:23.260Z,22.60
2023-02-24T18:37:54.676Z,24.65
2023-02-24T18:40:26.778Z,25.92
2023-02-24T18:42:58.317Z,21.48
2023-02-24T18:45:30.858Z,19.73
2023-02-24T18:48:02.309Z,24.85
2023-02-24T18:50:33.835Z,24.15
2023-02-24T18:53:05.451Z,24.38
2023-02-24T18:55:36.914Z,23.02
2023-02-24T18:58:08.375Z,19.20
2023-02-24T19:00:40.079Z,21.27
2023-02-24T19:03:11.791Z,23.98
2023-02-24T19:05:43.402Z,21.37
2023-02-24T19:08:14.957Z,24.88
2023-02-24T19:10:46.421Z,21.13
2023-02-24T19:13:17.847Z,18.70
2023-02-24T19:15:49.623Z,21.52
2023-02-24T19:18:21.069Z,26.13
2023-02-24T19:20:52.535Z,22.67
2023-02-24T19:23:24.033Z,24.55
2023-02-24T19:25:55.516Z,19.17
2023-02-24T19:28:26.994Z,20.20
2023-02-24T19:30:58.529Z,20.10
2023-02-24T19:33:29.989Z,18.05
2023-02-24T19:36:01.468Z,20.38
2023-02-24T19:38:32.917Z,18.17
2023-02-24T19:41:04.546Z,26.33
2023-02-24T19:43:36.191Z,18.35
2023-02-24T19:46:09.887Z,27.55
2023-02-24T19:48:41.871Z,25.17
2023-02-24T19:51:19.659Z,20.83
2023-02-24T19:53:56.197Z,25.48
2023-02-24T19:56:30.979Z,22.20
2023-02-24T19:59:05.154Z,23.42
2023-02-24T20:01:36.711Z,22.25
2023-02-24T20:04:08.695Z,24.42
2023-02-24T20:06:41.186Z,26.85
2023-02-24T20:09:15.597Z,29.05
2023-02-24T20:11:49.507Z,26.73
2023-02-24T20:14:20.917Z,24.30
2023-02-24T20:16:52.440Z,22.23
2023-02-24T20:19:23.917Z,27.65
2023-02-24T20:21:55.335Z,21.20
2023-02-24T20:24:27.151Z,24.27
2023-02-24T20:26:58.550Z,23.40
2023-02-24T20:29:31.255Z,19.55
2023-02-24T20:32:03.444Z,14.65
2023-02-24T20:34:36.378Z,11.50
2023-02-24T20:37:07.856Z,11.82
2023-02-24T20:39:39.247Z,11.57
2023-02-24T20:42:10.716Z,9.80
2023-02-24T20:44:42.166Z,9.52
2023-02-24T20:47:13.586Z,11.95
2023-02-24T20:49:45.020Z,10.13
2023-02-24T20:52:16.500Z,13.35
2023-02-24T20:54:47.912Z,12.35
2023-02-24T20:57:19.432Z,11.93
2023-02-24T21:00:02.847Z,15.70
2023-02-24T21:02:36.009Z,20.87
2023-02-24T21:05:09.499Z,15.52
2023-02-24T21:07:40.984Z,16.83
2023-02-24T21:10:12.557Z,18.38
2023-02-24T21:12:44.139Z,22.38
2023-02-24T21:15:15.835Z,20.07
2023-02-24T21:17:47.228Z,17.40
2023-02-24T21:20:18.761Z,16.20
2023-02-24T21:22:50.207Z,18.80
2023-02-24T21:25:21.652Z,23.73
2023-02-24T21:27:54.158Z,23.75
2023-02-24T21:30:25.587Z,21.35
2023-02-24T21:32:57.023Z,23.83
2023-02-24T21:35:28.424Z,18.65
2023-02-24T21:37:59.942Z,22.83
2023-02-24T21:40:32.516Z,12.10
2023-02-24T21:43:04.474Z,13.77
2023-02-24T21:45:35.936Z,14.43
2023-02-24T21:48:07.352Z,14.63
2023-02-24T21:50:38.806Z,16.50
2023-02-24T21:53:10.338Z,12.50
2023-02-24T21:55:41.733Z,17.30
2023-02-24T21:58:13.155Z,17.83
2023-02-24T22:00:44.552Z,13.82
2023-02-24T22:03:16.022Z,12.90
2023-02-24T22:05:48.013Z,15.95
2023-02-24T22:08:19.902Z,24.20
2023-02-24T22:10:59.851Z,15.95
2023-02-24T22:13:31.339Z,15.85
2023-02-24T22:16:06.377Z,16.55
2023-02-24T22:18:37.893Z,20.65
2023-02-24T22:21:12.136Z,15.25
2023-02-24T22:23:45.695Z,12.70
2023-02-24T22:26:18.783Z,11.68
2023-02-24T22:28:50.249Z,13.23
2023-02-24T22:31:25.441Z,16.80
2023-02-24T22:33:57.456Z,15.60
2023-02-24T22:36:34.587Z,11.20
2023-02-24T22:39:06.886Z,6.47
2023-02-24T22:41:38.588Z,8.80
2023-02-24T22:44:10.275Z,7.50
2023-02-24T22:46:41.778Z,10.13
2023-02-24T22:49:13.321Z,9.47
2023-02-24T22:51:44.779Z,15.82
2023-02-24T22:54:16.408Z,17.17
2023-02-24T22:56:47.980Z,14.65
2023-02-24T22:59:19.452Z,15.77
2023-02-24T23:01:50.910Z,18.92
2023-02-24T23:04:22.356Z,17.80
2023-02-24T23:06:53.813Z,19.17
2023-02-24T23:09:25.273Z,21.27
2023-02-24T23:11:56.680Z,22.85
2023-02-24T23:14:28.140Z,20.75
2023-02-24T23:16:59.574Z,20.27
2023-02-24T23:19:31.027Z,20.08
2023-02-24T23:22:02.557Z,20.50
2023-02-24T23:24:34.051Z,17.08
2023-02-24T23:27:05.499Z,25.73
2023-02-24T23:29:37.008Z,22.73
2023-02-24T23:32:08.573Z,22.73
2023-02-24T23:34:40.071Z,24.05
2023-02-24T23:37:11.484Z,22.05
2023-02-24T23:39:42.881Z,20.58
2023-02-24T23:42:14.287Z,21.10
2023-02-24T23:44:47.103Z,24.90
2023-02-24T23:47:18.572Z,21.95
2023-02-24T23:49:50.059Z,25.60
2023-02-24T23:52:21.530Z,19.52
2023-02-24T23:54:53.018Z,18.20
2023-02-24T23:57:24.477Z,18.48
2023-02-24T23:59:55.939Z,16.95
